• Join FlightAware (Why Join?)
  • Login
  • US Flag 
12:33AM EDT


 

Airport Tracker/Info


-or-


 

Live Flight TrackerFlight Track Log ✈ N15DA ✈ 04-Aug-2013 ✈ KEGV - KPWK

Flight Track Log - Related Links

Times and Time Zones

All times are in EDT time to prevent confusion due to time zone crossing. See the N15DA flight status page for this flight to view local times or setup timezone preferences in your user account.

Time Position Orientation Groundspeed Altitude Reporting Facility
EDT Latitude Longitude Course Direction KTS MPH feet Rate Location/Type
02:43PM 45.6681 -89.1676 165° South  Level Estimated
02:43PM 45.8397 -89.2283 165° South 116 133 4,400  Level Minneapolis Center
02:44PM 45.6241 -89.1509 165° South  Level Estimated
02:44PM 45.7997 -89.2036 157° South 124 143 5,400  Level Minneapolis Center
02:45PM 45.5801 -89.1343 165° South  Level Estimated
02:46PM 45.5360 -89.1176 165° South  Level Estimated
02:46PM 45.7658 -89.1883 163° South 126 145 6,200  Level Minneapolis Center
02:47PM 45.4920 -89.1010 165° South  Level Estimated
02:47PM 45.7325 -89.1717 161° South 127 146 6,900  Level Minneapolis Center
02:48PM 45.4479 -89.0844 165° South  Level Estimated
02:48PM 45.6992 -89.1558 162° South 126 145 7,700  Level Minneapolis Center
02:49PM 45.4039 -89.0679 165° South  Level Estimated
02:49PM 45.6647 -89.1397 162° South 130 150 8,400  Level Minneapolis Center
02:50PM 45.6222 -89.1197 162° South 133 153 9,000 240 Climbing Minneapolis Center
02:51PM 45.5778 -89.0997 163° South 156 180 9,000  Level Minneapolis Center
02:52PM 45.5306 -89.0781 162° South 170 196 9,000  Level Minneapolis Center
02:53PM 45.4850 -89.0561 161° South 173 199 9,000  Level Minneapolis Center
02:54PM 45.4400 -89.0339 161° South 172 198 9,000  Level Minneapolis Center
02:55PM 45.3944 -89.0125 162° South 173 199 9,000  Level Minneapolis Center
02:56PM 45.3403 -88.9869 162° South 171 197 9,000  Level Minneapolis Center
02:57PM 45.2933 -88.9650 162° South 176 203 9,000  Level Minneapolis Center
02:58PM 45.2469 -88.9450 163° South 176 203 9,000  Level Minneapolis Center
02:59PM 45.1994 -88.9233 162° South 178 205 9,000  Level Minneapolis Center
03:00PM 45.1531 -88.9000 160° South 177 204 9,000  Level Minneapolis Center
03:01PM 45.0969 -88.8764 163° South 175 201 9,000 -60 Level Minneapolis Center
03:02PM 45.0408 -88.8494 161° South 175 201 8,900 -60 Descending Minneapolis Center
03:03PM 44.9936 -88.8261 161° South 178 205 8,900  Level Minneapolis Center
03:04PM 44.9464 -88.8044 162° South 178 205 8,900  Level Minneapolis Center
03:05PM 44.8989 -88.7825 162° South 180 207 8,900  Level Minneapolis Center
03:06PM 44.8506 -88.7619 163° South 181 208 8,900  Level Minneapolis Center
03:07PM 44.8022 -88.7158 146° Southeast 180 207 8,900  Level Minneapolis Center
03:09PM 44.7611 -88.6761 146° Southeast 178 205 9,000  Climbing Minneapolis Center
03:10PM 44.7194 -88.6347 145° Southeast 182 209 9,000  Level Minneapolis Center
03:11PM 44.6781 -88.5958 146° Southeast 180 207 9,000  Level Minneapolis Center
03:12PM 44.6367 -88.5558 145° Southeast 180 207 9,000  Level Minneapolis Center
03:13PM 44.5950 -88.5144 145° Southeast 182 209 9,000  Level Minneapolis Center
03:14PM 44.5453 -88.4714 148° Southeast 182 209 9,000  Level Minneapolis Center
03:15PM 44.5044 -88.4294 144° Southeast 181 208 9,000  Level Minneapolis Center
03:16PM 44.4617 -88.3900 147° Southeast 185 213 9,000  Level Minneapolis Center
03:17PM 44.4211 -88.3508 145° Southeast 179 206 9,000  Level Minneapolis Center
03:18PM 44.3792 -88.3108 146° Southeast 182 209 9,000  Level Minneapolis Center
03:19PM 44.3414 -88.2833 152° Southeast 182 209 9,000  Level Minneapolis Center
03:20PM 44.2808 -88.2436 155° Southeast 180 207 9,000  Level Minneapolis Center
03:21PM 44.2350 -88.2153 156° South 179 206 9,000  Level Minneapolis Center
03:22PM 44.1872 -88.1953 163° South 183 211 9,000  Level Minneapolis Center
03:23PM 44.1378 -88.1889 175° South 179 206 9,000  Level Minneapolis Center
03:24PM 44.0803 -88.1811 174° South 179 206 9,000  Level Minneapolis Center
03:25PM 44.0303 -88.1767 176° South 179 206 9,000  Level Minneapolis Center
03:26PM 43.9817 -88.1725 176° South 177 204 9,000 -60 Level Minneapolis Center
03:27PM 43.9328 -88.1692 177° South 176 203 8,900 -120 Descending Minneapolis Center
03:28PM 43.8675 -88.1639 177° South 174 200 8,800 -360 Descending Minneapolis Center
03:29PM 43.8164 -88.1603 177° South 183 211 8,200 -600 Descending Minneapolis Center
03:30PM 43.7633 -88.1553 176° South 189 217 7,600 -540 Descending Minneapolis Center
03:31PM 43.7133 -88.1508 176° South 182 209 7,100 -300 Descending Minneapolis Center
03:33PM 43.6644 -88.1467 176° South 176 203 7,000 -120 Descending Minneapolis Center
03:34PM 43.6156 -88.1428 177° South 175 201 6,900  Descending Minneapolis Center
03:35PM 43.5600 -88.1364 175° South 172 198 7,000  Climbing Minneapolis Center
03:36PM 43.5125 -88.1314 176° South 171 197 6,900  Descending Minneapolis Center
03:37PM 43.4656 -88.1275 177° South 169 194 7,000  Climbing Minneapolis Center
03:38PM 43.4189 -88.1239 177° South 167 192 7,000  Level Minneapolis Center
03:39PM 43.3719 -88.1261 182° South 167 192 7,000  Level Minneapolis Center
03:40PM 43.3244 -88.1289 182° South 170 196 7,000  Level Minneapolis Center
03:41PM 43.2692 -88.1333 183° South 169 194 7,000  Level Minneapolis Center
03:42PM 43.2244 -88.1361 183° South 163 188 7,100  Climbing Chicago Center
03:43PM 43.1711 -88.1389 182° South 163 188 7,100  Level Chicago Center
03:44PM 43.1233 -88.1422 183° South 168 193 7,100  Level Chicago Center
03:45PM 43.0781 -88.1439 182° South 164 189 7,100 -300 Level Chicago Center
03:46PM 43.0286 -88.1447 181° South 171 197 6,600 -660 Descending Chicago Center
03:47PM 42.9778 -88.1492 184° South 180 207 5,800 -600 Descending Chicago Center
03:48PM 42.9183 -88.1542 184° South 182 209 5,400 -480 Descending Chicago Center
03:49PM 42.8708 -88.1569 182° South 174 200 4,900 -540 Descending Chicago Center
03:50PM 42.8208 -88.1619 184° South 177 204 4,300 -480 Descending Chicago Center
03:51PM 42.7714 -88.1669 184° South 178 205 4,000 -180 Descending Chicago Center
03:52PM 42.7247 -88.1731 185° South 171 197 4,000  Level Chicago Center
03:53PM 42.6794 -88.1786 185° South 165 190 4,100  Climbing Chicago Center
03:54PM 42.6267 -88.1861 186° South 163 188 4,000 -60 Descending Chicago Center
03:55PM 42.5819 -88.1886 182° South 163 188 4,000  Level Chicago Center
03:56PM 42.5372 -88.1972 188° South 162 186 4,000 -60 Level Chicago Center
03:57PM 42.4922 -88.2033 186° South 162 186 3,900 -60 Descending Chicago Center
03:59PM 42.4489 -88.2031 180° South 158 182 3,900  Level Chicago Center
04:00PM 42.3997 -88.1983 176° South 152 175 3,900 -120 Level Chicago Center
04:01PM 42.3664 -88.1761 154° Southeast 148 170 3,700 -480 Descending Chicago Center
04:02PM 42.3697 -88.1089 86° East 174 200 3,000 -420 Descending Chicago Center
04:03PM 42.3725 -88.0522 86° East 162 186 2,900  Descending Chicago Center
04:04PM 42.3525 -88.0267 137° Southeast 134 154 3,100  Climbing Chicago Center
04:05PM 42.3119 -88.0122 165° South 145 167 3,000 -180 Descending Chicago Center
04:06PM 42.2742 -87.9883 155° Southeast 147 169 2,800 -300 Descending Chicago Center
04:07PM 42.2278 -87.9647 159° South 149 171 2,500 -360 Descending Chicago Center
04:08PM 42.1925 -87.9447 157° South 145 167 2,100 -360 Descending Chicago Center
04:09PM 42.1553 -87.9239 157° South 140 161 1,800 -300 Descending Chicago Center